createdAt,value
2022-09-29T00:02:23.740Z,5.69
2022-09-29T00:05:27.058Z,5.22
2022-09-29T00:08:32.640Z,5.09
2022-09-29T00:11:35.940Z,5.33
2022-09-29T00:14:39.471Z,5.01
2022-09-29T00:18:02.710Z,5.14
2022-09-29T00:21:07.593Z,4.95
2022-09-29T00:24:12.296Z,4.99
2022-09-29T00:27:15.668Z,4.99
2022-09-29T00:30:19.024Z,4.74
2022-09-29T00:33:22.234Z,4.95
2022-09-29T00:36:30.160Z,4.89
2022-09-29T00:39:35.111Z,4.95
2022-09-29T00:42:38.371Z,4.89
2022-09-29T00:45:41.839Z,4.97
2022-09-29T00:48:45.420Z,4.91
2022-09-29T00:51:52.516Z,5.00
2022-09-29T00:55:01.188Z,5.06
2022-09-29T00:58:09.551Z,4.94
2022-09-29T01:01:14.047Z,5.00
2022-09-29T01:04:22.523Z,4.88
2022-09-29T01:07:27.712Z,4.98
2022-09-29T01:10:32.241Z,5.26
2022-09-29T01:13:36.174Z,5.22
2022-09-29T01:16:43.341Z,4.93
2022-09-29T01:20:01.936Z,5.17
2022-09-29T01:23:36.119Z,4.25
2022-09-29T01:27:17.367Z,5.32
2022-09-29T01:30:22.570Z,5.60
2022-09-29T01:33:35.464Z,5.00
2022-09-29T01:36:50.136Z,5.01
2022-09-29T01:40:01.899Z,4.86
2022-09-29T01:43:09.626Z,5.06
2022-09-29T01:46:17.623Z,5.26
2022-09-29T01:49:25.357Z,4.86
2022-09-29T01:52:32.612Z,5.02
2022-09-29T01:55:43.070Z,5.18
2022-09-29T01:58:54.221Z,4.79
2022-09-29T02:02:07.278Z,5.03
2022-09-29T02:05:19.099Z,5.31
2022-09-29T02:08:26.715Z,5.09
2022-09-29T02:11:33.242Z,5.07
2022-09-29T02:14:42.686Z,5.06
2022-09-29T02:17:49.145Z,5.02
2022-09-29T02:20:53.926Z,5.07
2022-09-29T02:23:59.290Z,5.06
2022-09-29T02:27:04.191Z,5.27
2022-09-29T02:30:08.439Z,5.09
2022-09-29T02:33:19.795Z,5.03
2022-09-29T02:36:37.436Z,4.85
2022-09-29T02:39:47.329Z,5.05
2022-09-29T02:43:05.898Z,4.83
2022-09-29T02:46:22.387Z,4.74
2022-09-29T02:49:49.549Z,4.78
2022-09-29T02:53:04.748Z,4.74
2022-09-29T02:56:17.286Z,4.71
2022-09-29T02:59:27.835Z,4.68
2022-09-29T03:02:30.940Z,4.58
2022-09-29T03:05:34.429Z,4.66
2022-09-29T03:08:38.985Z,5.44
2022-09-29T03:11:42.547Z,4.91
2022-09-29T03:14:45.842Z,4.70
2022-09-29T03:17:50.605Z,4.91
2022-09-29T03:20:55.359Z,4.60
2022-09-29T03:24:00.220Z,4.62
2022-09-29T03:27:04.449Z,4.49
2022-09-29T03:30:09.436Z,4.70
2022-09-29T03:35:08.590Z,4.47
2022-09-29T03:38:11.779Z,5.16
2022-09-29T03:41:15.669Z,4.68
2022-09-29T03:44:19.201Z,5.07
2022-09-29T03:47:22.862Z,4.53
2022-09-29T03:50:27.475Z,4.63
2022-09-29T03:53:31.109Z,4.58
2022-09-29T03:56:34.683Z,4.78
2022-09-29T03:59:40.946Z,4.60
2022-09-29T04:02:46.763Z,4.43
2022-09-29T04:05:52.893Z,3.83
2022-09-29T04:08:56.281Z,4.29
2022-09-29T04:11:59.460Z,4.23
2022-09-29T04:15:02.660Z,4.10
2022-09-29T04:18:06.854Z,4.24
2022-09-29T04:21:12.838Z,4.17
2022-09-29T04:24:16.058Z,4.15
2022-09-29T04:27:19.852Z,4.46
2022-09-29T04:30:23.018Z,4.03
2022-09-29T04:33:26.520Z,4.14
2022-09-29T04:36:31.067Z,4.01
2022-09-29T04:39:34.302Z,3.94
2022-09-29T04:42:37.474Z,4.02
2022-09-29T04:45:40.839Z,3.89
2022-09-29T04:48:44.180Z,3.90
2022-09-29T04:51:48.852Z,3.90
2022-09-29T04:54:52.286Z,3.84
2022-09-29T04:57:55.651Z,3.65
2022-09-29T05:01:06.587Z,3.76
2022-09-29T05:04:10.742Z,3.76
2022-09-29T05:07:16.326Z,3.71
2022-09-29T05:10:19.646Z,3.90
2022-09-29T05:13:23.015Z,3.78
2022-09-29T05:16:26.219Z,4.03
2022-09-29T05:19:30.028Z,3.61
2022-09-29T05:22:34.875Z,3.57
2022-09-29T05:25:38.374Z,3.47
2022-09-29T05:28:45.391Z,3.58
2022-09-29T05:31:48.813Z,3.47
2022-09-29T05:34:52.678Z,3.33
2022-09-29T05:37:57.322Z,3.30
2022-09-29T05:41:05.954Z,3.37
2022-09-29T05:44:09.232Z,3.45
2022-09-29T05:47:12.459Z,3.46
2022-09-29T05:50:15.760Z,3.50
2022-09-29T05:53:20.272Z,3.70
2022-09-29T05:56:25.313Z,3.83
2022-09-29T05:59:28.462Z,3.49
2022-09-29T06:02:32.421Z,3.76
2022-09-29T06:05:41.162Z,3.82
2022-09-29T06:08:46.708Z,4.27
2022-09-29T06:11:50.322Z,3.91
2022-09-29T06:14:53.683Z,3.50
2022-09-29T06:17:57.181Z,3.22
2022-09-29T06:21:04.457Z,3.41
2022-09-29T06:24:09.229Z,3.61
2022-09-29T06:27:13.632Z,3.45
2022-09-29T06:30:16.800Z,4.18
2022-09-29T06:33:21.375Z,4.30
2022-09-29T06:36:46.804Z,3.78
2022-09-29T06:39:51.516Z,3.52
2022-09-29T06:42:54.737Z,3.54
2022-09-29T06:45:58.047Z,3.83
2022-09-29T06:49:01.411Z,3.72
2022-09-29T06:52:14.928Z,4.33
2022-09-29T06:55:21.900Z,4.39
2022-09-29T06:58:26.732Z,3.96
2022-09-29T07:01:31.903Z,3.86
2022-09-29T07:04:35.077Z,4.20
2022-09-29T07:07:38.174Z,3.94
2022-09-29T07:10:42.650Z,3.97
2022-09-29T07:13:45.783Z,4.15
2022-09-29T07:16:49.782Z,3.88
2022-09-29T07:19:56.823Z,3.82
2022-09-29T07:23:02.814Z,4.13
2022-09-29T07:26:08.688Z,4.11
2022-09-29T07:29:15.494Z,4.75
2022-09-29T07:32:26.852Z,3.98
2022-09-29T07:35:30.673Z,4.46
2022-09-29T07:38:33.944Z,4.72
2022-09-29T07:41:38.657Z,4.48
2022-09-29T07:44:41.800Z,4.34
2022-09-29T07:47:45.128Z,4.47
2022-09-29T07:50:48.439Z,4.78
2022-09-29T07:53:51.882Z,4.90
2022-09-29T07:56:56.536Z,5.62
2022-09-29T07:59:59.863Z,5.55
2022-09-29T08:03:03.404Z,5.36
2022-09-29T08:06:07.527Z,5.20
2022-09-29T08:09:10.825Z,5.81
2022-09-29T08:12:15.356Z,5.59
2022-09-29T08:15:18.505Z,5.82
2022-09-29T08:18:21.617Z,6.41
2022-09-29T08:21:25.056Z,6.33
2022-09-29T08:24:30.070Z,6.72
2022-09-29T08:27:36.876Z,6.55
2022-09-29T08:30:44.722Z,6.53
2022-09-29T08:33:49.820Z,6.54
2022-09-29T08:36:53.032Z,6.55
2022-09-29T08:39:56.198Z,6.89
2022-09-29T08:43:09.783Z,6.84
2022-09-29T08:46:34.116Z,6.53
2022-09-29T08:49:42.408Z,7.43
2022-09-29T08:52:52.839Z,8.01
2022-09-29T08:55:59.686Z,8.03
2022-09-29T08:59:04.701Z,8.47
2022-09-29T09:02:29.881Z,7.89
2022-09-29T09:05:52.243Z,7.88
2022-09-29T09:09:09.501Z,8.56
2022-09-29T09:12:39.656Z,7.98
2022-09-29T09:15:55.544Z,8.42
2022-09-29T09:19:25.852Z,8.13
2022-09-29T09:22:42.917Z,8.48
2022-09-29T09:25:50.588Z,8.03
2022-09-29T09:29:01.743Z,8.72
2022-09-29T09:35:26.788Z,8.74
2022-09-29T09:38:41.893Z,8.49
2022-09-29T09:41:48.700Z,8.69
2022-09-29T09:44:57.931Z,9.00
2022-09-29T09:48:09.091Z,9.01
2022-09-29T09:51:30.247Z,9.30
2022-09-29T09:54:37.098Z,8.93
2022-09-29T09:57:50.141Z,9.98
2022-09-29T10:00:58.542Z,9.68
2022-09-29T10:04:02.984Z,9.50
2022-09-29T10:07:07.497Z,9.65
2022-09-29T10:10:18.272Z,9.63
2022-09-29T10:13:21.997Z,9.90
2022-09-29T10:16:32.378Z,10.02
2022-09-29T10:19:55.300Z,10.27
2022-09-29T10:23:20.752Z,9.70
2022-09-29T10:26:26.961Z,10.16
2022-09-29T10:29:34.966Z,10.03
2022-09-29T10:32:38.544Z,10.19
2022-09-29T10:35:44.418Z,9.99
2022-09-29T10:38:51.579Z,10.16
2022-09-29T10:41:54.776Z,10.21
2022-09-29T10:45:04.158Z,10.12
2022-09-29T10:48:13.843Z,10.27
2022-09-29T10:51:25.131Z,10.13
2022-09-29T10:54:33.347Z,10.21
2022-09-29T10:57:37.311Z,10.67
2022-09-29T11:00:42.203Z,10.37
2022-09-29T11:03:51.060Z,10.67
2022-09-29T11:06:54.935Z,11.03
2022-09-29T11:10:01.350Z,11.06
2022-09-29T11:13:40.726Z,11.02
2022-09-29T11:16:54.899Z,11.21
2022-09-29T11:20:02.126Z,11.11
2022-09-29T11:23:22.771Z,11.00
2022-09-29T11:26:34.996Z,11.39
2022-09-29T11:29:51.418Z,11.35
2022-09-29T11:33:13.551Z,11.12
2022-09-29T11:36:26.838Z,11.30
2022-09-29T11:39:42.818Z,11.11
2022-09-29T11:43:07.591Z,11.26
2022-09-29T11:46:27.616Z,10.94
2022-09-29T11:49:44.861Z,11.03
2022-09-29T11:53:04.254Z,11.00
2022-09-29T11:56:29.233Z,11.01
2022-09-29T11:59:48.599Z,11.17
2022-09-29T12:03:21.076Z,11.06
2022-09-29T12:06:42.796Z,11.15
2022-09-29T12:10:03.848Z,11.03
2022-09-29T12:13:20.849Z,11.36
2022-09-29T12:16:32.271Z,11.49
2022-09-29T12:19:40.325Z,11.20
2022-09-29T12:22:45.026Z,11.42
2022-09-29T12:25:57.241Z,11.43
2022-09-29T12:29:05.569Z,11.26
2022-09-29T12:32:19.072Z,11.01
2022-09-29T12:35:30.946Z,10.91
2022-09-29T12:38:38.818Z,10.89
2022-09-29T12:41:47.849Z,10.70
2022-09-29T12:44:56.678Z,10.59
2022-09-29T12:48:09.181Z,10.59
2022-09-29T12:51:18.495Z,10.45
2022-09-29T12:54:28.518Z,10.34
2022-09-29T12:57:35.976Z,10.35
2022-09-29T13:00:45.428Z,10.42
2022-09-29T13:04:15.918Z,10.16
2022-09-29T13:07:58.315Z,10.10
2022-09-29T13:11:23.314Z,10.32
2022-09-29T13:14:50.035Z,10.27
2022-09-29T13:18:11.160Z,10.57
2022-09-29T13:21:25.856Z,10.58
2022-09-29T13:24:48.828Z,10.55
2022-09-29T13:27:56.312Z,10.28
2022-09-29T13:31:03.961Z,10.82
2022-09-29T13:34:07.578Z,10.58
2022-09-29T13:37:17.146Z,10.76
2022-09-29T13:40:24.532Z,10.57
2022-09-29T13:44:01.695Z,10.52
2022-09-29T13:47:33.090Z,10.55
2022-09-29T13:50:44.447Z,10.35
2022-09-29T13:54:08.923Z,10.33
2022-09-29T13:57:27.567Z,10.44
2022-09-29T14:00:33.404Z,10.34
2022-09-29T14:03:38.282Z,10.41
2022-09-29T14:06:48.698Z,9.97
2022-09-29T14:09:52.447Z,10.26
2022-09-29T14:13:02.759Z,10.20
2022-09-29T14:16:19.297Z,10.20
2022-09-29T14:19:47.172Z,10.25
2022-09-29T14:22:55.407Z,10.05
2022-09-29T14:26:00.285Z,10.10
2022-09-29T14:29:05.848Z,10.03
2022-09-29T14:32:19.068Z,9.89
2022-09-29T14:35:28.554Z,9.76
2022-09-29T14:38:34.568Z,9.99
2022-09-29T14:41:43.374Z,9.96
2022-09-29T14:45:05.166Z,9.69
2022-09-29T14:48:33.413Z,10.29
2022-09-29T14:52:01.225Z,10.18
2022-09-29T14:55:11.872Z,10.01
2022-09-29T14:58:29.446Z,10.24
2022-09-29T15:01:36.001Z,9.99
2022-09-29T15:04:40.577Z,9.91
2022-09-29T15:07:44.385Z,9.89
2022-09-29T15:10:48.002Z,9.88
2022-09-29T15:13:51.329Z,9.71
2022-09-29T15:17:14.677Z,9.80
2022-09-29T15:20:23.387Z,9.56
2022-09-29T15:24:04.461Z,10.09
2022-09-29T15:27:14.626Z,9.76
2022-09-29T15:30:20.226Z,9.94
2022-09-29T15:35:09.776Z,10.02
2022-09-29T15:38:32.703Z,9.91
2022-09-29T15:41:40.952Z,10.08
2022-09-29T15:44:55.092Z,10.05
2022-09-29T15:48:04.898Z,10.00
2022-09-29T15:51:18.747Z,9.87
2022-09-29T15:54:22.416Z,9.92
2022-09-29T15:57:52.909Z,9.70
2022-09-29T16:01:00.229Z,9.36
2022-09-29T16:04:04.778Z,9.60
2022-09-29T16:07:20.221Z,9.54
2022-09-29T16:10:28.516Z,9.29
2022-09-29T16:13:34.848Z,9.56
2022-09-29T16:16:43.261Z,9.49
2022-09-29T16:19:49.289Z,9.18
2022-09-29T16:22:53.872Z,9.20
2022-09-29T16:26:20.223Z,9.13
2022-09-29T16:29:32.704Z,9.02
2022-09-29T16:32:43.024Z,8.93
2022-09-29T16:35:59.656Z,8.88
2022-09-29T16:39:05.647Z,8.83
2022-09-29T16:42:19.590Z,8.91
2022-09-29T16:45:24.103Z,8.98
2022-09-29T16:48:30.312Z,8.40
2022-09-29T16:51:40.752Z,8.63
2022-09-29T16:54:47.492Z,8.49
2022-09-29T16:57:57.171Z,8.59
2022-09-29T17:01:00.308Z,8.68
2022-09-29T17:04:03.628Z,8.56
2022-09-29T17:07:06.959Z,8.73
2022-09-29T17:10:18.359Z,8.37
2022-09-29T17:13:22.351Z,8.40
2022-09-29T17:16:26.163Z,8.13
2022-09-29T17:19:29.318Z,7.99
2022-09-29T17:22:36.073Z,7.93
2022-09-29T17:25:44.091Z,7.93
2022-09-29T17:28:46.534Z,7.75
2022-09-29T17:31:50.083Z,7.75
2022-09-29T17:34:53.448Z,7.91
2022-09-29T17:37:56.815Z,7.72
2022-09-29T17:41:04.138Z,7.61
2022-09-29T17:44:10.085Z,7.52
2022-09-29T17:47:28.614Z,7.66
2022-09-29T17:50:36.768Z,8.00
2022-09-29T17:53:41.545Z,8.27
2022-09-29T17:56:46.108Z,7.51
2022-09-29T17:59:49.358Z,7.39
2022-09-29T18:02:57.065Z,7.44
2022-09-29T18:06:00.671Z,7.25
2022-09-29T18:09:14.791Z,7.33
2022-09-29T18:12:19.374Z,7.21
2022-09-29T18:15:23.677Z,6.95
2022-09-29T18:18:27.325Z,7.10
2022-09-29T18:21:33.769Z,7.21
2022-09-29T18:24:36.849Z,7.40
2022-09-29T18:27:41.383Z,7.07
2022-09-29T18:30:47.631Z,7.01
2022-09-29T18:33:50.907Z,6.99
2022-09-29T18:36:54.002Z,6.90
2022-09-29T18:39:57.059Z,6.69
2022-09-29T18:43:01.939Z,6.75
2022-09-29T18:46:05.479Z,6.66
2022-09-29T18:49:08.911Z,6.59
2022-09-29T18:52:12.267Z,6.77
2022-09-29T18:55:16.960Z,6.64
2022-09-29T18:58:22.348Z,6.56
2022-09-29T19:01:27.512Z,6.48
2022-09-29T19:04:31.155Z,6.71
2022-09-29T19:07:34.946Z,6.32
2022-09-29T19:10:38.334Z,6.25
2022-09-29T19:13:43.618Z,6.29
2022-09-29T19:16:46.666Z,6.25
2022-09-29T19:19:50.428Z,6.28
2022-09-29T19:22:54.434Z,6.18
2022-09-29T19:25:58.394Z,6.18
2022-09-29T19:29:03.025Z,6.22
2022-09-29T19:32:06.786Z,6.13
2022-09-29T19:35:13.650Z,6.25
2022-09-29T19:38:18.012Z,6.25
2022-09-29T19:41:23.730Z,5.93
2022-09-29T19:44:31.878Z,5.84
2022-09-29T19:47:37.463Z,5.69
2022-09-29T19:50:58.019Z,5.87
2022-09-29T19:54:11.412Z,5.86
2022-09-29T19:57:16.042Z,5.80
2022-09-29T20:00:22.157Z,5.76
2022-09-29T20:03:25.626Z,6.14
2022-09-29T20:06:29.038Z,5.82
2022-09-29T20:09:33.150Z,5.67
2022-09-29T20:12:37.629Z,5.68
2022-09-29T20:15:46.372Z,5.90
2022-09-29T20:18:49.766Z,5.82
2022-09-29T20:21:54.580Z,5.81
2022-09-29T20:24:58.500Z,6.13
2022-09-29T20:28:01.888Z,5.63
2022-09-29T20:31:07.547Z,5.67
2022-09-29T20:34:12.137Z,5.59
2022-09-29T20:37:16.143Z,5.64
2022-09-29T20:40:19.265Z,5.48
2022-09-29T20:43:22.638Z,5.46
2022-09-29T20:46:28.131Z,5.48
2022-09-29T20:49:31.589Z,5.37
2022-09-29T20:52:35.017Z,5.54
2022-09-29T20:55:38.321Z,5.13
2022-09-29T20:58:44.213Z,5.17
2022-09-29T21:01:49.628Z,5.23
2022-09-29T21:04:53.098Z,5.42
2022-09-29T21:07:56.299Z,5.38
2022-09-29T21:11:01.197Z,5.10
2022-09-29T21:14:08.370Z,5.26
2022-09-29T21:17:13.051Z,5.25
2022-09-29T21:20:20.287Z,6.25
2022-09-29T21:23:31.658Z,6.17
2022-09-29T21:26:54.031Z,5.32
2022-09-29T21:30:23.053Z,5.22
2022-09-29T21:35:08.148Z,5.14
2022-09-29T21:38:19.970Z,5.12
2022-09-29T21:41:36.856Z,5.28
2022-09-29T21:44:43.734Z,5.07
2022-09-29T21:48:04.232Z,5.05
2022-09-29T21:51:11.388Z,4.99
2022-09-29T21:54:22.320Z,4.98
2022-09-29T21:57:45.816Z,4.94
2022-09-29T22:00:51.766Z,5.10
2022-09-29T22:03:58.294Z,5.42
2022-09-29T22:07:05.849Z,5.27
2022-09-29T22:10:12.106Z,5.29
2022-09-29T22:13:25.126Z,5.20
2022-09-29T22:16:32.670Z,5.28
2022-09-29T22:19:59.158Z,5.13
2022-09-29T22:23:09.836Z,5.03
2022-09-29T22:26:17.481Z,5.14
2022-09-29T22:29:27.123Z,5.06
2022-09-29T22:32:53.321Z,5.14
2022-09-29T22:35:57.740Z,5.08
2022-09-29T22:39:28.804Z,4.90
2022-09-29T22:42:38.233Z,4.91
2022-09-29T22:45:41.595Z,5.12
2022-09-29T22:48:44.896Z,5.16
2022-09-29T22:51:51.019Z,5.09
2022-09-29T22:55:01.214Z,4.96
2022-09-29T22:58:04.830Z,4.99
2022-09-29T23:01:10.060Z,4.94
2022-09-29T23:04:13.379Z,4.87
2022-09-29T23:07:31.944Z,4.93
2022-09-29T23:10:39.622Z,4.98
2022-09-29T23:13:46.830Z,4.95
2022-09-29T23:16:50.041Z,4.88
2022-09-29T23:19:53.181Z,4.93
2022-09-29T23:23:16.754Z,4.77
2022-09-29T23:26:24.058Z,4.83
2022-09-29T23:29:30.472Z,4.78
2022-09-29T23:32:35.805Z,5.02
2022-09-29T23:36:07.033Z,5.55
2022-09-29T23:39:15.503Z,4.94
2022-09-29T23:42:38.657Z,4.89
2022-09-29T23:45:41.743Z,4.77
2022-09-29T23:48:44.941Z,4.77
2022-09-29T23:51:50.411Z,4.79
2022-09-29T23:54:53.615Z,4.73
2022-09-29T23:57:58.255Z,4.81
